createdAt,value
2019-03-28T00:01:57.320Z,53.61
2019-03-28T00:04:27.414Z,53.93
2019-03-28T00:06:57.312Z,54.22
2019-03-28T00:09:28.227Z,54.65
2019-03-28T00:11:58.609Z,54.91
2019-03-28T00:14:29.033Z,55.69
2019-03-28T00:16:59.001Z,56.07
2019-03-28T00:19:28.935Z,55.90
2019-03-28T00:21:58.960Z,55.73
2019-03-28T00:24:33.221Z,55.67
2019-03-28T00:27:04.140Z,55.91
2019-03-28T00:29:34.085Z,55.94
2019-03-28T00:32:04.233Z,56.05
2019-03-28T00:34:34.242Z,56.75
2019-03-28T00:37:04.169Z,57.43
2019-03-28T00:39:34.156Z,58.02
2019-03-28T00:42:04.144Z,58.72
2019-03-28T00:44:34.946Z,59.63
2019-03-28T00:47:05.170Z,60.39
2019-03-28T00:49:35.187Z,61.73
2019-03-28T00:52:05.126Z,63.08
2019-03-28T00:54:35.454Z,66.01
2019-03-28T00:57:06.568Z,68.58
2019-03-28T00:59:36.847Z,69.77
2019-03-28T01:02:06.930Z,70.41
2019-03-28T01:04:36.973Z,70.39
2019-03-28T01:07:06.998Z,71.23
2019-03-28T01:09:37.172Z,72.35
2019-03-28T01:12:07.619Z,75.07
2019-03-28T01:14:37.564Z,77.22
2019-03-28T01:17:08.676Z,78.42
2019-03-28T01:19:38.718Z,79.64
2019-03-28T01:22:08.661Z,79.96
2019-03-28T01:24:38.716Z,80.91
2019-03-28T01:27:08.625Z,80.09
2019-03-28T01:29:38.570Z,80.41
2019-03-28T01:32:08.791Z,79.97
2019-03-28T01:34:38.811Z,79.50
2019-03-28T01:37:08.748Z,79.08
2019-03-28T01:39:38.738Z,78.74
2019-03-28T01:42:08.765Z,78.83
2019-03-28T01:44:38.784Z,78.89
2019-03-28T01:47:08.894Z,79.14
2019-03-28T01:49:38.854Z,80.43
2019-03-28T01:52:08.863Z,81.24
2019-03-28T01:54:38.928Z,82.08
2019-03-28T01:57:11.320Z,82.60
2019-03-28T01:59:40.522Z,83.18
2019-03-28T02:02:10.558Z,83.65
2019-03-28T02:04:40.558Z,83.75
2019-03-28T02:07:10.590Z,84.56
2019-03-28T02:09:40.616Z,86.19
2019-03-28T02:12:10.591Z,87.89
2019-03-28T02:14:40.537Z,87.26
2019-03-28T02:17:10.570Z,87.05
2019-03-28T02:19:40.629Z,87.16
2019-03-28T02:22:10.580Z,86.89
2019-03-28T02:24:40.543Z,86.27
2019-03-28T02:27:23.107Z,85.99
2019-03-28T02:29:42.495Z,86.69
2019-03-28T02:32:12.874Z,86.38
2019-03-28T02:34:43.002Z,86.49
2019-03-28T02:37:13.367Z,86.62
2019-03-28T02:39:43.385Z,86.66
2019-03-28T02:42:13.380Z,87.61
2019-03-28T02:44:43.391Z,89.08
2019-03-28T02:47:13.331Z,88.99
2019-03-28T02:49:43.315Z,88.48
2019-03-28T02:52:13.351Z,90.01
2019-03-28T02:54:43.367Z,90.43
2019-03-28T02:57:13.502Z,89.78
2019-03-28T02:59:43.447Z,89.36
2019-03-28T03:02:13.685Z,89.22
2019-03-28T03:04:43.743Z,89.30
2019-03-28T03:07:13.678Z,91.79
2019-03-28T03:09:43.634Z,92.79
2019-03-28T03:12:13.888Z,92.29
2019-03-28T03:14:43.944Z,90.83
2019-03-28T03:17:13.873Z,90.41
2019-03-28T03:19:44.005Z,89.89
2019-03-28T03:22:14.030Z,90.02
2019-03-28T03:24:43.982Z,89.08
2019-03-28T03:27:14.065Z,89.07
2019-03-28T03:29:44.079Z,88.82
2019-03-28T03:32:14.156Z,87.92
2019-03-28T03:34:44.311Z,87.36
2019-03-28T03:37:14.348Z,87.11
2019-03-28T03:39:44.408Z,87.31
2019-03-28T03:42:14.389Z,86.39
2019-03-28T03:44:44.330Z,85.97
2019-03-28T03:47:14.370Z,86.04
2019-03-28T03:49:44.437Z,84.95
2019-03-28T03:52:14.383Z,84.33
2019-03-28T03:54:44.356Z,83.74
2019-03-28T03:57:14.464Z,83.08
2019-03-28T03:59:44.959Z,83.25
2019-03-28T04:02:14.894Z,82.43
2019-03-28T04:04:45.238Z,81.83
2019-03-28T04:07:15.317Z,81.61
2019-03-28T04:09:45.261Z,81.40
2019-03-28T04:12:15.308Z,80.58
2019-03-28T04:14:45.319Z,80.26
2019-03-28T04:17:15.249Z,80.13
2019-03-28T04:19:45.244Z,80.65
2019-03-28T04:22:15.298Z,80.03
2019-03-28T04:24:45.303Z,80.13
2019-03-28T04:27:15.440Z,80.57
2019-03-28T04:29:45.392Z,79.90
2019-03-28T04:32:15.397Z,79.55
2019-03-28T04:34:45.448Z,79.53
2019-03-28T04:37:15.437Z,79.28
2019-03-28T04:39:45.368Z,79.08
2019-03-28T04:42:15.462Z,78.40
2019-03-28T04:44:47.964Z,77.86
2019-03-28T04:47:18.829Z,78.06
2019-03-28T04:49:48.972Z,77.83
2019-03-28T04:52:21.765Z,77.37
2019-03-28T04:54:52.574Z,76.63
2019-03-28T04:57:23.220Z,76.55
2019-03-28T04:59:53.163Z,76.14
2019-03-28T05:02:23.209Z,75.90
2019-03-28T05:04:53.261Z,75.53
2019-03-28T05:07:24.643Z,75.37
2019-03-28T05:09:55.545Z,74.91
2019-03-28T05:12:25.753Z,74.80
2019-03-28T05:14:55.728Z,75.09
2019-03-28T05:17:25.671Z,75.51
2019-03-28T05:19:55.993Z,75.52
2019-03-28T05:22:27.042Z,75.26
2019-03-28T05:24:57.351Z,75.47
2019-03-28T05:27:27.411Z,75.83
2019-03-28T05:29:57.386Z,75.02
2019-03-28T05:32:27.611Z,75.48
2019-03-28T05:34:58.050Z,75.08
2019-03-28T05:37:31.247Z,74.97
2019-03-28T05:40:01.257Z,75.54
2019-03-28T05:42:32.019Z,75.28
2019-03-28T05:45:02.006Z,75.81
2019-03-28T05:47:32.045Z,75.87
2019-03-28T05:50:02.962Z,75.47
2019-03-28T05:52:32.906Z,75.05
2019-03-28T05:55:05.333Z,75.70
2019-03-28T05:57:34.833Z,75.43
2019-03-28T06:00:05.339Z,75.15
2019-03-28T06:02:35.704Z,75.93
2019-03-28T06:05:06.412Z,75.94
2019-03-28T06:07:36.453Z,76.23
2019-03-28T06:10:07.357Z,76.32
2019-03-28T06:12:37.683Z,75.77
2019-03-28T06:15:08.580Z,75.46
2019-03-28T06:17:38.637Z,76.00
2019-03-28T06:20:09.500Z,76.33
2019-03-28T06:22:39.817Z,76.54
2019-03-28T06:25:10.032Z,75.83
2019-03-28T06:27:39.950Z,75.40
2019-03-28T06:30:10.968Z,74.25
2019-03-28T06:32:43.171Z,73.85
2019-03-28T06:35:12.828Z,74.17
2019-03-28T06:37:42.776Z,75.35
2019-03-28T06:40:13.146Z,74.06
2019-03-28T06:42:43.143Z,74.97
2019-03-28T06:45:13.185Z,75.05
2019-03-28T06:47:43.471Z,75.36
2019-03-28T06:50:14.114Z,74.41
2019-03-28T06:52:44.111Z,74.87
2019-03-28T06:55:14.162Z,76.32
2019-03-28T06:57:44.190Z,75.78
2019-03-28T07:00:14.903Z,75.92
2019-03-28T07:02:44.862Z,74.96
2019-03-28T07:05:15.329Z,75.20
2019-03-28T07:07:45.368Z,76.10
2019-03-28T07:10:15.572Z,76.00
2019-03-28T07:12:45.938Z,73.97
2019-03-28T07:15:16.140Z,72.90
2019-03-28T07:17:46.195Z,72.38
2019-03-28T07:20:17.841Z,71.79
2019-03-28T07:22:47.810Z,72.31
2019-03-28T07:25:18.088Z,72.47
2019-03-28T07:27:48.023Z,71.27
2019-03-28T07:30:19.945Z,71.35
2019-03-28T07:32:50.008Z,71.33
2019-03-28T07:35:19.965Z,71.56
2019-03-28T07:37:49.914Z,71.31
2019-03-28T07:40:20.048Z,71.26
2019-03-28T07:42:50.113Z,70.80
2019-03-28T07:45:20.201Z,72.03
2019-03-28T07:47:50.177Z,70.88
2019-03-28T07:50:20.299Z,69.74
2019-03-28T07:52:50.327Z,70.02
2019-03-28T07:55:20.362Z,69.37
2019-03-28T07:57:52.524Z,68.91
2019-03-28T08:00:22.493Z,69.52
2019-03-28T08:02:52.673Z,70.04
2019-03-28T08:05:22.752Z,69.87
2019-03-28T08:07:52.757Z,70.10
2019-03-28T08:10:22.783Z,69.66
2019-03-28T08:12:52.764Z,69.21
2019-03-28T08:15:22.734Z,68.23
2019-03-28T08:17:52.962Z,67.24
2019-03-28T08:20:22.906Z,66.85
2019-03-28T08:22:52.820Z,68.23
2019-03-28T08:25:22.918Z,66.59
2019-03-28T08:27:53.047Z,66.40
2019-03-28T08:30:35.370Z,65.07
2019-03-28T08:33:06.238Z,66.69
2019-03-28T08:35:37.484Z,67.31
2019-03-28T08:38:10.144Z,68.28
2019-03-28T08:40:41.979Z,67.14
2019-03-28T08:43:12.939Z,67.30
2019-03-28T08:45:42.931Z,66.19
2019-03-28T08:48:12.872Z,64.79
2019-03-28T08:50:43.059Z,65.45
2019-03-28T08:54:22.331Z,63.81
2019-03-28T08:56:07.658Z,61.46
2019-03-28T08:58:38.340Z,60.78
2019-03-28T09:01:08.640Z,59.24
2019-03-28T09:03:39.182Z,60.82
2019-03-28T09:06:09.420Z,61.68
2019-03-28T09:08:39.450Z,62.22
2019-03-28T09:11:09.514Z,61.36
2019-03-28T09:13:40.179Z,61.14
2019-03-28T09:16:10.191Z,61.75
2019-03-28T09:18:40.301Z,62.15
2019-03-28T09:21:10.288Z,62.15
2019-03-28T09:23:40.387Z,60.96
2019-03-28T09:26:10.448Z,60.59
2019-03-28T09:28:40.659Z,59.72
2019-03-28T09:31:19.804Z,58.30
2019-03-28T09:33:43.630Z,58.83
2019-03-28T09:36:16.155Z,60.10
2019-03-28T09:38:46.198Z,59.90
2019-03-28T09:41:16.728Z,60.02
2019-03-28T09:43:55.042Z,61.34
2019-03-28T09:46:19.358Z,61.08
2019-03-28T09:48:49.605Z,61.19
2019-03-28T09:51:19.646Z,60.97
2019-03-28T09:53:49.605Z,60.11
2019-03-28T09:56:22.888Z,59.83
2019-03-28T09:58:53.103Z,59.22
2019-03-28T10:01:23.857Z,59.46
2019-03-28T10:03:53.925Z,58.95
2019-03-28T10:06:24.289Z,58.54
2019-03-28T10:08:55.506Z,58.03
2019-03-28T10:11:25.927Z,57.03
2019-03-28T10:13:56.983Z,56.92
2019-03-28T10:16:26.976Z,54.92
2019-03-28T10:18:57.264Z,54.89
2019-03-28T10:21:27.249Z,54.64
2019-03-28T10:23:57.189Z,54.66
2019-03-28T10:26:27.217Z,53.50
2019-03-28T10:28:57.285Z,51.71
2019-03-28T10:31:27.296Z,50.78
2019-03-28T10:33:57.374Z,50.77
2019-03-28T10:36:27.883Z,50.81
2019-03-28T10:38:58.102Z,51.34
2019-03-28T10:41:28.852Z,51.37
2019-03-28T10:43:59.222Z,52.49
2019-03-28T10:46:29.190Z,51.51
2019-03-28T10:48:59.381Z,50.87
2019-03-28T10:51:29.355Z,50.04
2019-03-28T10:53:59.415Z,49.94
2019-03-28T10:56:29.447Z,48.22
2019-03-28T10:58:59.384Z,46.68
2019-03-28T11:01:47.144Z,47.06
2019-03-28T11:04:01.197Z,46.54
2019-03-28T11:06:31.180Z,46.78
2019-03-28T11:09:01.128Z,45.20
2019-03-28T11:11:31.193Z,44.17
2019-03-28T11:14:01.239Z,45.45
2019-03-28T11:16:31.200Z,46.58
2019-03-28T11:19:01.186Z,46.75
2019-03-28T11:21:34.191Z,46.18
2019-03-28T11:24:02.876Z,45.02
2019-03-28T11:26:33.091Z,45.20
2019-03-28T11:29:03.150Z,44.76
2019-03-28T11:31:45.548Z,45.09
2019-03-28T11:34:04.879Z,45.05
2019-03-28T11:36:34.870Z,44.27
2019-03-28T11:39:06.769Z,43.60
2019-03-28T11:41:36.918Z,44.36
2019-03-28T11:44:06.843Z,43.32
2019-03-28T11:46:36.892Z,43.54
2019-03-28T11:49:06.961Z,43.51
2019-03-28T11:51:36.938Z,43.37
2019-03-28T11:54:06.913Z,43.15
2019-03-28T11:56:36.929Z,42.97
2019-03-28T11:59:06.972Z,42.59
2019-03-28T12:01:36.952Z,42.71
2019-03-28T12:04:07.123Z,42.56
2019-03-28T12:06:37.087Z,43.03
2019-03-28T12:09:08.437Z,42.65
2019-03-28T12:11:39.967Z,42.00
2019-03-28T12:14:09.987Z,42.08
2019-03-28T12:16:40.017Z,40.86
2019-03-28T12:19:10.094Z,41.25
2019-03-28T12:21:40.128Z,40.97
2019-03-28T12:24:10.148Z,40.91
2019-03-28T12:26:40.186Z,40.86
2019-03-28T12:29:10.107Z,40.13
2019-03-28T12:31:40.146Z,39.71
2019-03-28T12:34:10.226Z,39.30
2019-03-28T12:36:40.211Z,39.45
2019-03-28T12:39:10.142Z,40.23
2019-03-28T12:41:40.667Z,40.09
2019-03-28T12:44:10.631Z,38.97
2019-03-28T12:46:40.613Z,39.01
2019-03-28T12:49:10.715Z,39.34
2019-03-28T12:51:40.725Z,38.54
2019-03-28T12:54:10.746Z,37.80
2019-03-28T12:56:40.924Z,37.79
2019-03-28T12:59:10.955Z,38.06
2019-03-28T13:01:40.960Z,37.22
2019-03-28T13:04:11.057Z,37.28
2019-03-28T13:06:41.045Z,37.25
2019-03-28T13:09:11.579Z,37.21
2019-03-28T13:11:41.546Z,37.43
2019-03-28T13:14:11.472Z,38.41
2019-03-28T13:16:41.677Z,38.96
2019-03-28T13:19:11.699Z,38.56
2019-03-28T13:21:41.696Z,38.62
2019-03-28T13:24:11.772Z,38.28
2019-03-28T13:26:41.746Z,37.90
2019-03-28T13:29:11.780Z,37.29
2019-03-28T13:31:41.879Z,37.24
2019-03-28T13:34:12.007Z,37.04
2019-03-28T13:36:41.950Z,36.63
2019-03-28T13:39:12.061Z,36.79
2019-03-28T13:41:44.418Z,36.80
2019-03-28T13:44:13.849Z,36.15
2019-03-28T13:46:43.868Z,36.53
2019-03-28T13:49:13.805Z,36.60
2019-03-28T13:51:43.782Z,35.70
2019-03-28T13:54:13.987Z,35.69
2019-03-28T13:56:43.968Z,35.65
2019-03-28T13:59:13.893Z,35.65
2019-03-28T14:01:43.948Z,35.56
2019-03-28T14:04:13.929Z,34.97
2019-03-28T14:06:43.955Z,35.45
2019-03-28T14:09:13.980Z,36.01
2019-03-28T14:11:43.990Z,35.31
2019-03-28T14:14:13.917Z,34.93
2019-03-28T14:16:44.081Z,34.44
2019-03-28T14:19:14.615Z,34.66
2019-03-28T14:21:44.584Z,34.00
2019-03-28T14:24:14.552Z,33.50
2019-03-28T14:26:44.544Z,33.92
2019-03-28T14:29:14.591Z,34.45
2019-03-28T14:31:44.593Z,34.72
2019-03-28T14:34:14.521Z,34.61
2019-03-28T14:36:44.501Z,35.51
2019-03-28T14:39:14.716Z,34.84
2019-03-28T14:41:46.371Z,34.32
2019-03-28T14:44:16.386Z,34.81
2019-03-28T14:46:46.386Z,35.65
2019-03-28T14:49:16.527Z,35.28
2019-03-28T14:51:46.560Z,34.87
2019-03-28T14:54:16.630Z,34.82
2019-03-28T14:56:46.891Z,34.60
2019-03-28T14:59:31.934Z,34.41
2019-03-28T15:01:50.935Z,34.23
2019-03-28T15:04:20.957Z,34.17
2019-03-28T15:06:53.232Z,34.12
2019-03-28T15:09:23.199Z,34.09
2019-03-28T15:11:53.261Z,33.89
2019-03-28T15:14:23.324Z,34.46
2019-03-28T15:16:53.362Z,34.58
2019-03-28T15:19:23.306Z,35.48
2019-03-28T15:21:53.348Z,35.43
2019-03-28T15:24:23.614Z,35.57
2019-03-28T15:26:53.933Z,35.66
2019-03-28T15:29:24.441Z,36.20
2019-03-28T15:31:54.494Z,35.54
2019-03-28T15:34:24.555Z,35.88
2019-03-28T15:36:54.972Z,35.68
2019-03-28T15:39:24.954Z,36.08
2019-03-28T15:41:54.925Z,36.08
2019-03-28T15:44:24.956Z,36.15
2019-03-28T15:46:55.062Z,36.53
2019-03-28T15:49:24.991Z,36.63
2019-03-28T15:51:54.974Z,37.20
2019-03-28T15:54:25.026Z,36.99
2019-03-28T15:56:55.008Z,37.07
2019-03-28T15:59:24.995Z,35.83
2019-03-28T16:01:55.178Z,35.97
2019-03-28T16:04:25.167Z,36.17
2019-03-28T16:06:55.121Z,36.45
2019-03-28T16:09:25.375Z,36.74
2019-03-28T16:12:02.511Z,36.54
2019-03-28T16:14:27.931Z,36.42
2019-03-28T16:16:57.946Z,35.96
2019-03-28T16:19:28.001Z,36.05
2019-03-28T16:21:57.976Z,36.29
2019-03-28T16:24:27.946Z,36.53
2019-03-28T16:26:57.927Z,37.32
2019-03-28T16:29:27.962Z,36.98
2019-03-28T16:31:58.025Z,37.62
2019-03-28T16:34:27.973Z,37.18
2019-03-28T16:36:58.346Z,37.01
2019-03-28T16:39:28.874Z,37.04
2019-03-28T16:41:58.857Z,37.23
2019-03-28T16:44:29.257Z,37.92
2019-03-28T16:46:59.306Z,38.62
2019-03-28T16:49:29.257Z,38.98
2019-03-28T16:51:59.252Z,39.43
2019-03-28T16:54:29.504Z,39.76
2019-03-28T16:56:59.605Z,40.11
2019-03-28T16:59:30.005Z,40.18
2019-03-28T17:02:00.173Z,39.71
2019-03-28T17:04:31.303Z,40.05
2019-03-28T17:07:05.525Z,40.42
2019-03-28T17:09:39.120Z,40.82
2019-03-28T17:12:09.334Z,41.16
2019-03-28T17:14:42.006Z,41.60
2019-03-28T17:17:11.980Z,41.65
2019-03-28T17:19:42.887Z,41.85
2019-03-28T17:22:13.241Z,41.51
2019-03-28T17:24:43.218Z,41.43
2019-03-28T17:27:13.213Z,42.01
2019-03-28T17:29:44.242Z,42.20
2019-03-28T17:32:14.227Z,42.44
2019-03-28T17:34:45.930Z,42.63
2019-03-28T17:37:16.006Z,42.73
2019-03-28T17:39:46.097Z,43.00
2019-03-28T17:42:16.093Z,43.12
2019-03-28T17:44:46.246Z,43.00
2019-03-28T17:47:16.261Z,43.40
2019-03-28T17:49:46.298Z,43.68
2019-03-28T17:54:55.670Z,44.22
2019-03-28T17:57:25.616Z,44.64
2019-03-28T17:59:55.690Z,44.80
2019-03-28T18:02:25.797Z,44.81
2019-03-28T18:05:08.496Z,44.96
2019-03-28T18:07:27.944Z,45.20
2019-03-28T18:09:58.124Z,45.43
2019-03-28T18:12:28.177Z,45.73
2019-03-28T18:14:58.496Z,45.58
2019-03-28T18:17:28.719Z,45.91
2019-03-28T18:19:58.665Z,46.22
2019-03-28T18:22:28.730Z,46.98
2019-03-28T18:24:59.050Z,47.65
2019-03-28T18:27:29.095Z,48.01
2019-03-28T18:29:59.110Z,48.15
2019-03-28T18:32:29.149Z,48.40
2019-03-28T18:35:05.185Z,48.94
2019-03-28T18:37:30.992Z,49.10
2019-03-28T18:40:03.843Z,49.43
2019-03-28T18:42:32.700Z,49.59
2019-03-28T18:45:02.791Z,49.17
2019-03-28T18:47:32.807Z,49.42
2019-03-28T18:50:03.990Z,49.40
2019-03-28T18:52:34.201Z,49.78
2019-03-28T18:55:04.329Z,49.79
2019-03-28T18:57:34.273Z,50.02
2019-03-28T19:00:05.063Z,49.85
2019-03-28T19:02:35.131Z,50.03
2019-03-28T19:05:18.679Z,50.54
2019-03-28T19:07:37.343Z,50.37
2019-03-28T19:10:08.673Z,50.17
2019-03-28T19:12:38.695Z,50.41
2019-03-28T19:15:08.965Z,50.35
2019-03-28T19:17:41.247Z,50.40
2019-03-28T19:20:12.221Z,50.98
2019-03-28T19:22:42.323Z,50.53
2019-03-28T19:25:12.690Z,51.34
2019-03-28T19:27:44.802Z,51.24
2019-03-28T19:30:16.319Z,50.89
2019-03-28T19:32:48.767Z,50.33
2019-03-28T19:35:32.193Z,50.25
2019-03-28T19:37:51.142Z,49.94
2019-03-28T19:40:23.489Z,49.14
2019-03-28T19:42:54.562Z,48.26
2019-03-28T19:45:38.379Z,47.63
2019-03-28T19:48:09.995Z,46.43
2019-03-28T19:50:39.965Z,46.59
2019-03-28T19:53:11.938Z,46.21
2019-03-28T19:55:57.122Z,45.99
2019-03-28T19:58:29.295Z,46.08
2019-03-28T20:00:59.532Z,46.06
2019-03-28T20:03:29.850Z,46.19
2019-03-28T20:05:59.924Z,46.72
2019-03-28T20:08:34.198Z,46.90
2019-03-28T20:11:05.622Z,47.37
2019-03-28T20:13:35.676Z,47.57
2019-03-28T20:16:07.736Z,48.35
2019-03-28T20:18:37.731Z,48.54
2019-03-28T20:21:09.075Z,49.51
2019-03-28T20:23:40.007Z,49.29
2019-03-28T20:26:10.137Z,49.88
2019-03-28T20:28:40.690Z,50.09
2019-03-28T20:31:13.021Z,50.82
2019-03-28T20:33:43.232Z,50.72
2019-03-28T20:36:36.386Z,50.97
2019-03-28T20:38:44.963Z,50.71
2019-03-28T20:41:17.036Z,50.73
2019-03-28T20:43:47.333Z,50.97
2019-03-28T20:46:20.434Z,50.83
2019-03-28T20:48:48.953Z,50.93
2019-03-28T20:51:19.014Z,51.33
2019-03-28T20:53:49.043Z,51.76
2019-03-28T20:56:20.995Z,51.73
2019-03-28T20:58:51.314Z,51.97
2019-03-28T21:01:21.386Z,51.96
2019-03-28T21:03:51.835Z,52.09
2019-03-28T21:06:25.932Z,52.45
2019-03-28T21:08:56.345Z,52.74
2019-03-28T21:11:29.395Z,52.95
2019-03-28T21:13:59.173Z,53.10
2019-03-28T21:16:29.127Z,53.02
2019-03-28T21:19:00.349Z,53.50
2019-03-28T21:21:30.555Z,53.63
2019-03-28T21:24:01.150Z,53.96
2019-03-28T21:26:31.115Z,53.97
2019-03-28T21:29:01.693Z,54.25
2019-03-28T21:31:31.661Z,54.18
2019-03-28T21:34:01.659Z,54.55
2019-03-28T21:36:32.392Z,54.60
2019-03-28T21:39:03.757Z,54.50
2019-03-28T21:41:33.699Z,54.59
2019-03-28T21:44:03.678Z,55.03
2019-03-28T21:46:33.715Z,55.17
2019-03-28T21:49:03.741Z,55.49
2019-03-28T21:51:33.722Z,55.73
2019-03-28T21:54:05.125Z,55.63
2019-03-28T21:56:36.293Z,55.89
2019-03-28T21:59:06.369Z,56.45
2019-03-28T22:01:36.302Z,56.75
2019-03-28T22:04:06.252Z,57.05
2019-03-28T22:06:43.167Z,57.43
2019-03-28T22:09:09.743Z,57.55
2019-03-28T22:11:45.254Z,57.77
2019-03-28T22:14:16.366Z,58.20
2019-03-28T22:16:49.835Z,58.47
2019-03-28T22:19:19.849Z,58.78
2019-03-28T22:21:52.785Z,59.52
2019-03-28T22:24:23.384Z,59.70
2019-03-28T22:26:53.321Z,59.48
2019-03-28T22:29:24.084Z,59.66
2019-03-28T22:31:55.125Z,60.20
2019-03-28T22:34:25.730Z,60.73
2019-03-28T22:36:57.702Z,61.01
2019-03-28T22:39:28.384Z,60.81
2019-03-28T22:41:58.335Z,61.12
2019-03-28T22:44:28.743Z,61.13
2019-03-28T22:46:58.670Z,61.62
2019-03-28T22:49:28.597Z,61.56
2019-03-28T22:51:59.326Z,61.60
2019-03-28T22:54:29.721Z,61.84
2019-03-28T22:56:59.737Z,61.91
2019-03-28T22:59:29.802Z,62.38
2019-03-28T23:02:01.101Z,62.41
2019-03-28T23:04:31.287Z,62.40
2019-03-28T23:07:10.992Z,63.18
2019-03-28T23:09:33.536Z,63.94
2019-03-28T23:12:03.983Z,64.04
2019-03-28T23:14:35.357Z,64.50
2019-03-28T23:17:06.830Z,64.30
2019-03-28T23:19:37.182Z,64.77
2019-03-28T23:22:07.944Z,64.91
2019-03-28T23:24:39.104Z,64.71
2019-03-28T23:27:09.509Z,64.24
2019-03-28T23:29:39.669Z,64.06
2019-03-28T23:32:12.858Z,63.85
2019-03-28T23:34:43.548Z,63.77
2019-03-28T23:37:24.130Z,64.11
2019-03-28T23:39:47.847Z,64.39
2019-03-28T23:42:18.650Z,64.71
2019-03-28T23:44:51.357Z,64.64
2019-03-28T23:47:21.520Z,64.59
2019-03-28T23:49:51.778Z,64.65
2019-03-28T23:52:22.099Z,64.24
2019-03-28T23:54:55.528Z,64.39
2019-03-28T23:57:25.810Z,64.21
2019-03-28T23:59:56.384Z,64.65
